Time,TemperatureF,DewpointF,PressureIn,WindDirection,WindDirectionDegrees,WindSpeedMPH,WindSpeedGustMPH,Humidity,HourlyPrecipIn,Conditions,Clouds,dailyrainin,SoftwareType,DateUTC
2013-02-21 00:01:00,37.0,36.0,29.99,ENE,67,0.0,0.0,98,0.00,,,0.00,,2013-02-21 08:01:00,
2013-02-21 00:11:00,37.0,37.0,30.00,ENE,67,0.0,0.0,99,0.00,,,0.00,,2013-02-21 08:11:00,
2013-02-21 00:21:00,37.0,37.0,30.00,ENE,67,0.0,0.0,99,0.00,,,0.00,,2013-02-21 08:21:00,
2013-02-21 00:31:00,37.0,37.0,30.01,ENE,67,0.0,0.0,99,0.00,,,0.00,,2013-02-21 08:31:00,
2013-02-21 00:41:00,37.0,37.0,30.01,ENE,67,0.0,0.0,99,0.00,,,0.00,,2013-02-21 08:41:00,
2013-02-21 00:52:00,36.0,36.0,30.01,ENE,67,0.0,0.0,99,0.00,,,0.00,,2013-02-21 08:52:00,
2013-02-21 01:01:00,36.0,36.0,30.01,ENE,67,0.0,0.0,99,0.00,,,0.00,,2013-02-21 09:01:00,
2013-02-21 01:11:00,36.0,36.0,30.01,ENE,67,0.0,0.0,99,0.00,,,0.00,,2013-02-21 09:11:00,
2013-02-21 01:22:00,36.0,36.0,30.01,ENE,67,0.0,0.0,99,0.00,,,0.00,,2013-02-21 09:22:00,
2013-02-21 01:31:00,36.0,36.0,30.01,ENE,67,0.0,0.0,99,0.00,,,0.00,,2013-02-21 09:31:00,
2013-02-21 01:41:00,36.0,36.0,30.00,ENE,67,0.0,0.0,100,0.00,,,0.00,,2013-02-21 09:41:00,
2013-02-21 01:52:00,36.0,36.0,30.00,ENE,67,0.0,0.0,100,0.00,,,0.00,,2013-02-21 09:52:00,
2013-02-21 02:01:00,36.0,36.0,30.00,ENE,67,0.0,0.0,100,0.00,,,0.00,,2013-02-21 10:01:00,
2013-02-21 02:11:00,36.0,36.0,30.00,ENE,67,0.0,0.0,100,0.00,,,0.00,,2013-02-21 10:11:00,
2013-02-21 02:21:00,36.0,36.0,30.00,ESE,102,2.0,2.0,100,0.00,,,0.00,,2013-02-21 10:21:00,
2013-02-21 02:31:00,35.0,35.0,29.99,East,101,0.0,0.0,100,0.00,,,0.00,,2013-02-21 10:31:00,
2013-02-21 02:41:00,35.0,35.0,29.99,East,101,0.0,0.0,100,0.00,,,0.00,,2013-02-21 10:41:00,
2013-02-21 02:51:00,35.0,35.0,29.99,East,101,0.0,0.0,100,0.00,,,0.00,,2013-02-21 10:51:00,
2013-02-21 03:00:00,36.0,36.0,29.98,East,101,0.0,0.0,100,0.00,,,0.00,,2013-02-21 11:00:00,
2013-02-21 03:10:00,36.0,36.0,29.98,East,101,0.0,0.0,100,0.00,,,0.00,,2013-02-21 11:10:00,
2013-02-21 03:20:00,36.0,36.0,29.98,East,101,0.0,0.0,100,0.00,,,0.00,,2013-02-21 11:20:00,
2013-02-21 03:31:00,36.0,36.0,29.99,East,101,0.0,0.0,100,0.00,,,0.00,,2013-02-21 11:31:00,
2013-02-21 03:41:00,36.0,36.0,29.99,East,101,0.0,0.0,100,0.00,,,0.00,,2013-02-21 11:41:00,
2013-02-21 03:51:00,35.0,35.0,29.99,East,101,0.0,0.0,100,0.00,,,0.00,,2013-02-21 11:51:00,
2013-02-21 04:01:00,35.0,35.0,29.98,East,101,0.0,0.0,100,0.00,,,0.00,,2013-02-21 12:01:00,
2013-02-21 04:11:00,35.0,35.0,29.98,East,101,0.0,0.0,100,0.00,,,0.00,,2013-02-21 12:11:00,
2013-02-21 04:21:00,35.0,35.0,29.98,East,101,0.0,0.0,100,0.00,,,0.00,,2013-02-21 12:21:00,
2013-02-21 04:32:00,34.0,34.0,29.99,East,101,0.0,0.0,100,0.00,,,0.00,,2013-02-21 12:32:00,
2013-02-21 04:42:00,34.0,34.0,29.98,East,101,0.0,0.0,100,0.00,,,0.00,,2013-02-21 12:42:00,
2013-02-21 04:52:00,34.0,34.0,29.98,East,101,0.0,0.0,100,0.00,,,0.00,,2013-02-21 12:52:00,
2013-02-21 05:01:00,34.0,34.0,29.99,NW,307,0.0,3.0,100,0.00,,,0.00,,2013-02-21 13:01:00,
2013-02-21 05:11:00,34.0,34.0,29.99,WNW,290,2.0,6.0,100,0.00,,,0.00,,2013-02-21 13:11:00,
2013-02-21 05:22:00,34.0,34.0,29.99,WNW,290,2.0,6.0,100,0.00,,,0.00,,2013-02-21 13:22:00,
2013-02-21 05:31:00,37.0,37.0,29.99,NNW,347,3.0,9.0,100,0.00,,,0.00,,2013-02-21 13:31:00,
2013-02-21 05:41:00,38.0,37.0,29.99,ENE,66,0.0,6.0,97,0.00,,,0.00,,2013-02-21 13:41:00,
2013-02-21 05:51:00,38.0,37.0,29.99,ENE,66,0.0,6.0,97,0.00,,,0.00,,2013-02-21 13:51:00,
2013-02-21 06:02:00,37.0,36.0,29.99,ESE,104,2.0,7.0,97,0.00,,,0.00,,2013-02-21 14:02:00,
2013-02-21 06:11:00,37.0,36.0,29.99,ESE,104,2.0,7.0,97,0.00,,,0.00,,2013-02-21 14:11:00,
2013-02-21 06:21:00,36.0,35.0,30.00,East,88,0.0,3.0,97,0.00,,,0.00,,2013-02-21 14:21:00,
2013-02-21 06:31:00,36.0,35.0,30.00,East,88,0.0,3.0,97,0.00,,,0.00,,2013-02-21 14:31:00,
2013-02-21 06:41:00,35.0,35.0,29.99,ESE,108,0.0,0.0,99,0.00,,,0.00,,2013-02-21 14:41:00,
2013-02-21 06:52:00,35.0,35.0,29.99,ESE,108,0.0,0.0,99,0.00,,,0.00,,2013-02-21 14:52:00,
2013-02-21 07:01:00,35.0,35.0,29.99,ESE,108,0.0,0.0,99,0.00,,,0.00,,2013-02-21 15:01:00,
2013-02-21 07:12:00,35.0,35.0,30.00,SE,143,0.0,0.0,99,0.00,,,0.00,,2013-02-21 15:12:00,
2013-02-21 07:21:00,35.0,35.0,30.00,SE,143,0.0,0.0,99,0.00,,,0.00,,2013-02-21 15:21:00,
2013-02-21 07:31:00,35.0,35.0,30.00,SE,143,0.0,0.0,99,0.00,,,0.00,,2013-02-21 15:31:00,
2013-02-21 07:41:00,35.0,35.0,30.00,SE,143,0.0,0.0,99,0.00,,,0.00,,2013-02-21 15:41:00,
2013-02-21 07:52:00,35.0,35.0,30.01,East,100,3.0,4.0,99,0.00,,,0.00,,2013-02-21 15:52:00,
2013-02-21 08:01:00,35.0,35.0,30.02,SSE,163,0.0,3.0,99,0.00,,,0.00,,2013-02-21 16:01:00,
2013-02-21 08:12:00,38.0,37.0,30.02,NE,51,3.0,7.0,95,0.00,,,0.00,,2013-02-21 16:12:00,
2013-02-21 08:21:00,38.0,37.0,30.02,NE,51,3.0,7.0,95,0.00,,,0.00,,2013-02-21 16:21:00,
2013-02-21 08:31:00,41.0,38.0,30.03,North,350,5.0,7.0,88,0.00,,,0.00,,2013-02-21 16:31:00,
2013-02-21 08:41:00,46.0,36.0,30.05,NNW,341,4.0,20.0,67,0.00,,,0.00,,2013-02-21 16:41:00,
2013-02-21 08:52:00,46.0,36.0,30.05,NNW,341,4.0,20.0,67,0.00,,,0.00,,2013-02-21 16:52:00,
2013-02-21 09:01:00,46.0,35.0,30.05,WNW,290,7.0,13.0,66,0.00,,,0.00,,2013-02-21 17:01:00,
2013-02-21 09:11:00,45.0,37.0,30.06,NW,304,6.0,12.0,73,0.00,,,0.00,,2013-02-21 17:11:00,
2013-02-21 09:21:00,45.0,37.0,30.06,NW,304,6.0,12.0,73,0.00,,,0.00,,2013-02-21 17:21:00,
2013-02-21 09:32:00,46.0,36.0,30.07,WNW,301,8.0,12.0,68,0.00,,,0.00,,2013-02-21 17:32:00,
2013-02-21 09:41:00,46.0,36.0,30.07,WNW,301,8.0,12.0,68,0.00,,,0.00,,2013-02-21 17:41:00,
2013-02-21 09:52:00,47.0,35.0,30.07,NW,321,3.0,19.0,64,0.00,,,0.00,,2013-02-21 17:52:00,
2013-02-21 10:01:00,48.0,34.0,30.07,NNW,346,6.0,20.0,59,0.00,,,0.00,,2013-02-21 18:01:00,
2013-02-21 10:11:00,49.0,35.0,30.08,North,350,9.0,19.0,58,0.00,,,0.00,,2013-02-21 18:11:00,
2013-02-21 10:21:00,49.0,35.0,30.08,North,350,9.0,19.0,58,0.00,,,0.00,,2013-02-21 18:21:00,
2013-02-21 10:31:00,50.0,35.0,30.08,NNW,345,9.0,15.0,56,0.00,,,0.00,,2013-02-21 18:31:00,
2013-02-21 10:42:00,50.0,35.0,30.08,NNW,345,9.0,15.0,56,0.00,,,0.00,,2013-02-21 18:42:00,
2013-02-21 10:51:00,50.0,34.0,30.08,NNE,22,6.0,12.0,54,0.00,,,0.00,,2013-02-21 18:51:00,
2013-02-21 11:01:00,50.0,34.0,30.09,ENE,64,4.0,20.0,54,0.00,,,0.00,,2013-02-21 19:01:00,
2013-02-21 11:11:00,50.0,34.0,30.09,ENE,64,4.0,20.0,54,0.00,,,0.00,,2013-02-21 19:11:00,
2013-02-21 11:21:00,52.0,36.0,30.09,NNW,328,6.0,24.0,54,0.00,,,0.00,,2013-02-21 19:21:00,
2013-02-21 11:31:00,53.0,34.0,30.09,North,352,11.0,22.0,48,0.00,,,0.00,,2013-02-21 19:31:00,
2013-02-21 11:41:00,53.0,34.0,30.09,North,352,11.0,22.0,48,0.00,,,0.00,,2013-02-21 19:41:00,
2013-02-21 11:51:00,52.0,32.0,30.09,North,4,10.0,23.0,47,0.00,,,0.00,,2013-02-21 19:51:00,
2013-02-21 12:01:00,53.0,34.0,30.08,ENE,75,8.0,20.0,49,0.00,,,0.00,,2013-02-21 20:01:00,
2013-02-21 12:11:00,53.0,32.0,30.08,NE,49,10.0,22.0,45,0.00,,,0.00,,2013-02-21 20:11:00,
2013-02-21 12:21:00,53.0,32.0,30.08,NE,49,10.0,22.0,45,0.00,,,0.00,,2013-02-21 20:21:00,
2013-02-21 12:31:00,55.0,33.0,30.08,North,7,8.0,21.0,44,0.00,,,0.00,,2013-02-21 20:31:00,
2013-02-21 12:41:00,55.0,33.0,30.08,North,7,8.0,21.0,44,0.00,,,0.00,,2013-02-21 20:41:00,
2013-02-21 12:52:00,55.0,33.0,30.07,WNW,296,5.0,15.0,43,0.00,,,0.00,,2013-02-21 20:52:00,
2013-02-21 13:02:00,56.0,32.0,30.07,NNW,337,6.0,14.0,40,0.00,,,0.00,,2013-02-21 21:02:00,
2013-02-21 13:11:00,55.0,32.0,30.07,North,5,9.0,19.0,42,0.00,,,0.00,,2013-02-21 21:11:00,
2013-02-21 13:21:00,55.0,32.0,30.07,North,5,9.0,19.0,42,0.00,,,0.00,,2013-02-21 21:21:00,
2013-02-21 13:31:00,56.0,33.0,30.07,North,0,6.0,14.0,41,0.00,,,0.00,,2013-02-21 21:31:00,
2013-02-21 13:41:00,58.0,34.0,30.08,WNW,302,3.0,9.0,41,0.00,,,0.00,,2013-02-21 21:41:00,
2013-02-21 13:51:00,58.0,34.0,30.08,WNW,302,3.0,9.0,41,0.00,,,0.00,,2013-02-21 21:51:00,
2013-02-21 14:01:00,57.0,32.0,30.06,NW,312,4.0,12.0,38,0.00,,,0.00,,2013-02-21 22:01:00,
2013-02-21 14:11:00,57.0,32.0,30.06,NW,312,4.0,12.0,38,0.00,,,0.00,,2013-02-21 22:11:00,
2013-02-21 14:21:00,58.0,34.0,30.06,WNW,291,7.0,15.0,40,0.00,,,0.00,,2013-02-21 22:21:00,
2013-02-21 14:31:00,58.0,34.0,30.06,NW,319,6.0,15.0,40,0.00,,,0.00,,2013-02-21 22:31:00,
2013-02-21 14:41:00,59.0,34.0,30.06,NW,317,8.0,15.0,39,0.00,,,0.00,,2013-02-21 22:41:00,
2013-02-21 14:51:00,59.0,34.0,30.06,NW,317,8.0,15.0,39,0.00,,,0.00,,2013-02-21 22:51:00,
2013-02-21 15:01:00,59.0,35.0,30.07,NW,321,6.0,11.0,40,0.00,,,0.00,,2013-02-21 23:01:00,
2013-02-21 15:11:00,59.0,35.0,30.07,NW,321,6.0,11.0,40,0.00,,,0.00,,2013-02-21 23:11:00,
2013-02-21 15:21:00,59.0,35.0,30.06,NNW,329,8.0,13.0,40,0.00,,,0.00,,2013-02-21 23:21:00,
2013-02-21 15:31:00,59.0,35.0,30.06,NW,313,5.0,9.0,40,0.00,,,0.00,,2013-02-21 23:31:00,
2013-02-21 15:41:00,59.0,35.0,30.06,NW,313,5.0,9.0,40,0.00,,,0.00,,2013-02-21 23:41:00,
2013-02-21 15:52:00,60.0,34.0,30.06,WNW,291,6.0,15.0,38,0.00,,,0.00,,2013-02-21 23:52:00,
2013-02-21 16:01:00,58.0,34.0,30.06,WNW,291,7.0,11.0,40,0.00,,,0.00,,2013-02-22 00:01:00,
2013-02-21 16:11:00,58.0,34.0,30.06,WNW,291,7.0,11.0,40,0.00,,,0.00,,2013-02-22 00:11:00,
2013-02-21 16:21:00,58.0,34.0,30.04,WNW,301,7.0,11.0,41,0.00,,,0.00,,2013-02-22 00:21:00,
2013-02-21 16:31:00,57.0,34.0,30.05,NW,325,6.0,11.0,41,0.00,,,0.00,,2013-02-22 00:31:00,
2013-02-21 16:41:00,57.0,34.0,30.05,NW,325,6.0,11.0,41,0.00,,,0.00,,2013-02-22 00:41:00,
2013-02-21 16:51:00,56.0,34.0,30.06,NW,309,7.0,15.0,44,0.00,,,0.00,,2013-02-22 00:51:00,
2013-02-21 17:01:00,56.0,34.0,30.06,NW,309,6.0,9.0,44,0.00,,,0.00,,2013-02-22 01:01:00,
2013-02-21 17:11:00,56.0,34.0,30.06,NW,309,6.0,9.0,44,0.00,,,0.00,,2013-02-22 01:11:00,
2013-02-21 17:21:00,56.0,36.0,30.06,NW,323,4.0,9.0,46,0.00,,,0.00,,2013-02-22 01:21:00,
2013-02-21 17:32:00,55.0,34.0,30.06,NW,326,6.0,9.0,45,0.00,,,0.00,,2013-02-22 01:32:00,
2013-02-21 17:41:00,54.0,34.0,30.07,NW,324,3.0,10.0,47,0.00,,,0.00,,2013-02-22 01:41:00,
2013-02-21 17:51:00,54.0,34.0,30.07,NW,324,3.0,10.0,47,0.00,,,0.00,,2013-02-22 01:51:00,
2013-02-21 18:01:00,53.0,34.0,30.07,WNW,289,2.0,5.0,49,0.00,,,0.00,,2013-02-22 02:01:00,
2013-02-21 18:11:00,50.0,35.0,30.07,WSW,238,0.0,0.0,57,0.00,,,0.00,,2013-02-22 02:11:00,
2013-02-21 18:21:00,50.0,35.0,30.07,WSW,238,0.0,0.0,57,0.00,,,0.00,,2013-02-22 02:21:00,
2013-02-21 18:31:00,49.0,36.0,30.07,WSW,238,0.0,0.0,60,0.00,,,0.00,,2013-02-22 02:31:00,
2013-02-21 18:42:00,47.0,36.0,30.06,NNE,16,0.0,0.0,66,0.00,,,0.00,,2013-02-22 02:42:00,
2013-02-21 18:52:00,47.0,36.0,30.06,NNE,16,0.0,0.0,66,0.00,,,0.00,,2013-02-22 02:52:00,
2013-02-21 19:01:00,46.0,36.0,30.06,NNE,16,0.0,0.0,68,0.00,,,0.00,,2013-02-22 03:01:00,
2013-02-21 19:11:00,45.0,37.0,30.07,NNE,16,0.0,0.0,72,0.00,,,0.00,,2013-02-22 03:11:00,
2013-02-21 19:21:00,45.0,37.0,30.07,NNE,16,0.0,0.0,72,0.00,,,0.00,,2013-02-22 03:21:00,
2013-02-21 19:31:00,44.0,36.0,30.08,NNE,16,0.0,0.0,73,0.00,,,0.00,,2013-02-22 03:31:00,
2013-02-21 19:41:00,44.0,36.0,30.08,NNE,16,0.0,0.0,73,0.00,,,0.00,,2013-02-22 03:41:00,
2013-02-21 19:52:00,44.0,37.0,30.08,NW,326,4.0,6.0,76,0.00,,,0.00,,2013-02-22 03:52:00,
2013-02-21 20:01:00,44.0,37.0,30.08,NNW,340,0.0,2.0,76,0.00,,,0.00,,2013-02-22 04:01:00,
2013-02-21 20:11:00,43.0,37.0,30.09,NNW,340,0.0,0.0,78,0.00,,,0.00,,2013-02-22 04:11:00,
2013-02-21 20:21:00,43.0,37.0,30.09,NNW,340,0.0,0.0,78,0.00,,,0.00,,2013-02-22 04:21:00,
2013-02-21 20:31:00,43.0,37.0,30.09,NW,309,1.0,1.0,79,0.00,,,0.00,,2013-02-22 04:31:00,
2013-02-21 20:41:00,42.0,36.0,30.09,SE,133,3.0,4.0,79,0.00,,,0.00,,2013-02-22 04:41:00,
2013-02-21 20:51:00,42.0,36.0,30.09,SE,133,3.0,4.0,79,0.00,,,0.00,,2013-02-22 04:51:00,
2013-02-21 21:01:00,42.0,36.0,30.09,ESE,122,2.0,4.0,80,0.00,,,0.00,,2013-02-22 05:01:00,
2013-02-21 21:11:00,42.0,36.0,30.09,ESE,122,2.0,4.0,80,0.00,,,0.00,,2013-02-22 05:11:00,
2013-02-21 21:21:00,41.0,36.0,30.10,NNE,21,0.0,3.0,81,0.00,,,0.00,,2013-02-22 05:21:00,
2013-02-21 21:32:00,41.0,35.0,30.10,NNE,21,0.0,0.0,80,0.00,,,0.00,,2013-02-22 05:32:00,
2013-02-21 21:41:00,40.0,35.0,30.11,ENE,73,0.0,4.0,82,0.00,,,0.00,,2013-02-22 05:41:00,
2013-02-21 21:52:00,40.0,35.0,30.11,ENE,73,0.0,4.0,82,0.00,,,0.00,,2013-02-22 05:52:00,
2013-02-21 22:01:00,40.0,35.0,30.11,ENE,73,0.0,0.0,83,0.00,,,0.00,,2013-02-22 06:01:00,
2013-02-21 22:11:00,39.0,35.0,30.11,East,91,2.0,2.0,85,0.00,,,0.00,,2013-02-22 06:11:00,
2013-02-21 22:21:00,39.0,35.0,30.11,East,91,2.0,2.0,85,0.00,,,0.00,,2013-02-22 06:21:00,
2013-02-21 22:31:00,40.0,36.0,30.11,East,100,1.0,3.0,86,0.00,,,0.00,,2013-02-22 06:31:00,
2013-02-21 22:41:00,40.0,36.0,30.11,East,100,1.0,3.0,86,0.00,,,0.00,,2013-02-22 06:41:00,
2013-02-21 22:52:00,40.0,36.0,30.12,ENE,74,0.0,3.0,85,0.00,,,0.00,,2013-02-22 06:52:00,
2013-02-21 23:01:00,39.0,35.0,30.11,ENE,74,0.0,0.0,86,0.00,,,0.00,,2013-02-22 07:01:00,
2013-02-21 23:11:00,39.0,36.0,30.11,East,90,2.0,3.0,88,0.00,,,0.00,,2013-02-22 07:11:00,
2013-02-21 23:21:00,39.0,36.0,30.11,East,90,2.0,3.0,88,0.00,,,0.00,,2013-02-22 07:21:00,
2013-02-21 23:31:00,39.0,36.0,30.11,ENE,70,0.0,2.0,88,0.00,,,0.00,,2013-02-22 07:31:00,
2013-02-21 23:42:00,39.0,36.0,30.11,ENE,70,0.0,0.0,88,0.00,,,0.00,,2013-02-22 07:42:00,
2013-02-21 23:51:00,39.0,36.0,30.11,ENE,70,0.0,0.0,88,0.00,,,0.00,,2013-02-22 07:51:00,